Search for airport 
image banner adimage banner adimage banner ad
image banner ad

03G - Thermal-G

Located in Erie, United States

ICAO - 03G, IATA -

Data provided by Airmate  

General information

Coordinates: N42°1'14" W80°4'15"
Elevation is 1434 feet MSL.
Magnetic variation is -08° East
View others Airports in Pennsylvania

Operational data

Special qualification required
Current time UTC:
Current local time:
Weather at : KERI - Erie Intl/Tom Ridge Field ( 11 km )
METAR: KERI 291603Z 15008KT 3SM RA BR FEW030 SCT046 OVC065 21/19 A2982 RMK AO2 LTG DSNT SE-W P0003 T02110194
TAF: KERI 291443Z 2915/3012 28010G20KT 3SM TSRA BKN025CB TEMPO 2915/2917 VRB15G30KT 1SM -TSRA OVC015CB FM291700 23011G20KT P6SM -SHRA VCTS BKN020CB TEMPO 2918/2921 4SM TSRA BR OVC009CB FM292100 27010KT P6SM VCSH BKN030 FM300500 34012KT P6SM BKN030
View NOTAMs / SUP AIP / TFR affecting this airport [VIEW]
Communications frequencies: [VIEW]

Runways:

RWY identifierQFULength (ft)Width (ft)SurfaceLDA (ft)
0764°1264110GRASS
25244°1264110GRASS

Airport contact information

Address: Erie United States

Satellite view of 03G